createdAt,value
2023-04-17T00:00:06.815Z,27.46
2023-04-17T00:01:06.105Z,27.50
2023-04-17T00:02:06.148Z,27.38
2023-04-17T00:03:06.268Z,27.43
2023-04-17T00:04:06.296Z,27.42
2023-04-17T00:05:06.177Z,27.47
2023-04-17T00:06:06.307Z,27.41
2023-04-17T00:07:06.194Z,27.44
2023-04-17T00:08:06.204Z,27.40
2023-04-17T00:09:06.231Z,27.44
2023-04-17T00:10:06.309Z,27.43
2023-04-17T00:11:08.418Z,27.42
2023-04-17T00:12:06.263Z,27.43
2023-04-17T00:13:06.284Z,27.42
2023-04-17T00:14:06.230Z,27.37
2023-04-17T00:15:06.253Z,27.40
2023-04-17T00:16:06.318Z,27.43
2023-04-17T00:17:06.216Z,27.41
2023-04-17T00:18:06.273Z,27.39
2023-04-17T00:19:06.229Z,27.36
2023-04-17T00:20:06.235Z,27.36
2023-04-17T00:21:06.214Z,27.37
2023-04-17T00:22:06.211Z,27.34
2023-04-17T00:23:06.188Z,27.42
2023-04-17T00:24:06.219Z,27.31
2023-04-17T00:25:06.190Z,27.34
2023-04-17T00:26:06.191Z,27.36
2023-04-17T00:27:06.180Z,27.32
2023-04-17T00:28:06.215Z,27.30
2023-04-17T00:29:06.156Z,27.29
2023-04-17T00:30:06.160Z,27.35
2023-04-17T00:31:06.149Z,27.31
2023-04-17T00:32:06.222Z,27.28
2023-04-17T00:33:06.170Z,27.26
2023-04-17T00:34:06.176Z,27.32
2023-04-17T00:35:06.113Z,27.29
2023-04-17T00:36:06.120Z,27.30
2023-04-17T00:37:06.125Z,27.23
2023-04-17T00:38:06.089Z,27.28
2023-04-17T00:39:06.070Z,27.26
2023-04-17T00:40:06.080Z,27.22
2023-04-17T00:41:06.249Z,27.28
2023-04-17T00:42:06.047Z,27.26
2023-04-17T00:43:06.074Z,27.25
2023-04-17T00:44:06.051Z,27.20
2023-04-17T00:45:06.073Z,27.25
2023-04-17T00:46:06.130Z,27.25
2023-04-17T00:47:06.024Z,27.22
2023-04-17T00:48:06.086Z,27.23
2023-04-17T00:49:06.035Z,27.23
2023-04-17T00:50:06.015Z,27.19
2023-04-17T00:51:06.039Z,27.18
2023-04-17T00:52:06.018Z,27.16
2023-04-17T00:53:05.996Z,27.26
2023-04-17T00:54:05.997Z,27.22
2023-04-17T00:55:05.961Z,27.20
2023-04-17T00:56:06.034Z,27.13
2023-04-17T00:57:05.973Z,27.15
2023-04-17T00:58:05.958Z,27.16
2023-04-17T00:59:05.950Z,27.11
2023-04-17T01:00:06.012Z,27.11
2023-04-17T01:01:06.053Z,27.12
2023-04-17T01:02:06.037Z,27.11
2023-04-17T01:03:06.243Z,27.12
2023-04-17T01:04:06.060Z,27.09
2023-04-17T01:05:05.908Z,27.12
2023-04-17T01:06:05.928Z,27.09
2023-04-17T01:07:05.903Z,27.08
2023-04-17T01:08:05.894Z,27.09
2023-04-17T01:09:05.879Z,27.05
2023-04-17T01:10:05.865Z,27.12
2023-04-17T01:11:05.883Z,27.04
2023-04-17T01:12:05.868Z,27.08
2023-04-17T01:13:05.891Z,27.02
2023-04-17T01:14:05.892Z,27.09
2023-04-17T01:15:05.862Z,27.08
2023-04-17T01:16:05.854Z,27.05
2023-04-17T01:17:05.921Z,27.02
2023-04-17T01:18:05.961Z,27.02
2023-04-17T01:19:05.813Z,27.01
2023-04-17T01:20:05.845Z,27.01
2023-04-17T01:21:05.807Z,27.01
2023-04-17T01:22:05.793Z,27.02
2023-04-17T01:23:05.802Z,27.06
2023-04-17T01:24:05.805Z,26.99
2023-04-17T01:25:05.836Z,26.96
2023-04-17T01:26:05.769Z,26.96
2023-04-17T01:27:05.763Z,27.02
2023-04-17T01:28:05.737Z,27.02
2023-04-17T01:29:05.740Z,27.01
2023-04-17T01:30:05.795Z,27.04
2023-04-17T01:31:05.755Z,26.95
2023-04-17T01:32:05.725Z,26.96
2023-04-17T01:33:05.816Z,26.94
2023-04-17T01:34:05.711Z,26.92
2023-04-17T01:35:05.706Z,26.95
2023-04-17T01:36:05.714Z,26.94
2023-04-17T01:37:05.699Z,26.94
2023-04-17T01:38:05.663Z,26.94
2023-04-17T01:39:05.699Z,26.92
2023-04-17T01:40:05.809Z,26.91
2023-04-17T01:41:05.672Z,26.94
2023-04-17T01:42:05.646Z,26.93
2023-04-17T01:43:06.303Z,26.93
2023-04-17T01:44:05.636Z,26.93
2023-04-17T01:45:05.646Z,26.91
2023-04-17T01:46:05.735Z,26.91
2023-04-17T01:47:05.608Z,26.95
2023-04-17T01:48:05.634Z,26.91
2023-04-17T01:49:05.602Z,26.90
2023-04-17T01:50:05.615Z,26.95
2023-04-17T01:51:05.578Z,26.96
2023-04-17T01:52:05.577Z,26.88
2023-04-17T01:53:05.558Z,26.90
2023-04-17T01:54:05.540Z,26.90
2023-04-17T01:55:05.535Z,26.90
2023-04-17T01:56:05.569Z,26.91
2023-04-17T01:57:05.580Z,26.85
2023-04-17T01:58:05.537Z,26.90
2023-04-17T01:59:05.604Z,26.94
2023-04-17T02:00:05.588Z,26.85
2023-04-17T02:01:05.613Z,26.85
2023-04-17T02:02:05.791Z,26.90
2023-04-17T02:03:05.710Z,26.88
2023-04-17T02:04:05.760Z,26.90
2023-04-17T02:05:05.651Z,26.84
2023-04-17T02:06:05.686Z,26.85
2023-04-17T02:07:05.694Z,26.84
2023-04-17T02:08:05.721Z,26.90
2023-04-17T02:09:05.729Z,26.85
2023-04-17T02:10:05.740Z,26.82
2023-04-17T02:11:05.857Z,26.91
2023-04-17T02:12:05.767Z,26.82
2023-04-17T02:13:05.782Z,26.81
2023-04-17T02:14:05.794Z,26.82
2023-04-17T02:15:05.841Z,26.85
2023-04-17T02:16:05.884Z,26.84
2023-04-17T02:17:05.849Z,26.88
2023-04-17T02:18:05.956Z,26.84
2023-04-17T02:19:05.887Z,26.87
2023-04-17T02:20:05.885Z,26.86
2023-04-17T02:21:05.916Z,26.87
2023-04-17T02:22:05.947Z,26.78
2023-04-17T02:23:06.017Z,26.84
2023-04-17T02:24:05.992Z,26.84
2023-04-17T02:25:05.991Z,26.85
2023-04-17T02:26:05.991Z,26.80
2023-04-17T02:27:06.031Z,26.87
2023-04-17T02:28:06.067Z,26.82
2023-04-17T02:29:06.090Z,26.78
2023-04-17T02:30:06.067Z,26.78
2023-04-17T02:31:06.134Z,26.81
2023-04-17T02:32:06.111Z,26.81
2023-04-17T02:33:06.195Z,26.80
2023-04-17T02:34:06.156Z,26.78
2023-04-17T02:35:06.164Z,26.76
2023-04-17T02:36:06.193Z,26.80
2023-04-17T02:37:06.166Z,26.81
2023-04-17T02:38:06.249Z,26.84
2023-04-17T02:39:06.249Z,26.77
2023-04-17T02:40:06.221Z,26.79
2023-04-17T02:41:06.287Z,26.80
2023-04-17T02:42:06.254Z,26.78
2023-04-17T02:43:06.278Z,26.78
2023-04-17T02:44:06.316Z,26.80
2023-04-17T02:45:06.318Z,26.77
2023-04-17T02:46:06.329Z,26.79
2023-04-17T02:47:06.333Z,26.76
2023-04-17T02:48:06.443Z,26.76
2023-04-17T02:49:06.373Z,26.77
2023-04-17T02:50:06.414Z,26.81
2023-04-17T02:51:06.433Z,26.76
2023-04-17T02:52:06.434Z,26.80
2023-04-17T02:53:06.496Z,26.78
2023-04-17T02:54:06.480Z,26.78
2023-04-17T02:55:06.498Z,26.80
2023-04-17T02:56:06.547Z,26.78
2023-04-17T02:57:06.535Z,26.78
2023-04-17T02:58:06.542Z,26.84
2023-04-17T02:59:06.569Z,26.80
2023-04-17T03:00:06.547Z,26.80
2023-04-17T03:01:06.640Z,26.80
2023-04-17T03:02:06.650Z,26.80
2023-04-17T03:03:06.700Z,26.76
2023-04-17T03:04:06.710Z,26.78
2023-04-17T03:05:06.608Z,26.78
2023-04-17T03:06:06.634Z,26.79
2023-04-17T03:07:06.683Z,26.85
2023-04-17T03:08:06.680Z,26.82
2023-04-17T03:09:06.676Z,26.78
2023-04-17T03:10:06.695Z,26.84
2023-04-17T03:11:06.704Z,26.86
2023-04-17T03:12:06.759Z,26.84
2023-04-17T03:13:06.742Z,26.80
2023-04-17T03:14:06.749Z,26.79
2023-04-17T03:15:08.770Z,26.84
2023-04-17T03:16:06.863Z,26.82
2023-04-17T03:17:06.816Z,26.77
2023-04-17T03:18:06.869Z,26.80
2023-04-17T03:19:06.857Z,26.80
2023-04-17T03:20:06.922Z,26.80
2023-04-17T03:21:06.942Z,26.80
2023-04-17T03:22:06.971Z,26.81
2023-04-17T03:23:06.979Z,26.81
2023-04-17T03:24:06.997Z,26.82
2023-04-17T03:25:07.041Z,26.83
2023-04-17T03:26:07.034Z,26.82
2023-04-17T03:27:07.073Z,26.78
2023-04-17T03:28:07.072Z,26.80
2023-04-17T03:29:07.106Z,26.85
2023-04-17T03:30:07.190Z,26.81
2023-04-17T03:31:07.127Z,26.88
2023-04-17T03:32:07.185Z,26.85
2023-04-17T03:33:07.170Z,26.79
2023-04-17T03:34:07.195Z,26.82
2023-04-17T03:35:07.196Z,26.88
2023-04-17T03:36:07.211Z,26.89
2023-04-17T03:37:07.247Z,26.85
2023-04-17T03:38:07.233Z,26.84
2023-04-17T03:39:07.236Z,26.91
2023-04-17T03:40:07.251Z,26.84
2023-04-17T03:41:07.281Z,26.85
2023-04-17T03:42:07.286Z,26.88
2023-04-17T03:43:07.283Z,26.86
2023-04-17T03:44:07.331Z,26.85
2023-04-17T03:45:07.355Z,26.87
2023-04-17T03:46:07.455Z,26.89
2023-04-17T03:47:07.379Z,26.84
2023-04-17T03:48:07.414Z,26.87
2023-04-17T03:49:07.369Z,26.87
2023-04-17T03:50:07.382Z,26.84
2023-04-17T03:51:07.409Z,26.87
2023-04-17T03:52:07.437Z,26.90
2023-04-17T03:53:07.431Z,26.82
2023-04-17T03:54:07.445Z,26.90
2023-04-17T03:55:07.475Z,26.91
2023-04-17T03:56:07.430Z,26.90
2023-04-17T03:57:07.477Z,26.90
2023-04-17T03:58:07.469Z,26.85
2023-04-17T03:59:07.450Z,26.88
2023-04-17T04:00:07.487Z,26.91
2023-04-17T04:01:07.481Z,26.88
2023-04-17T04:02:07.553Z,26.84
2023-04-17T04:03:07.695Z,26.84
2023-04-17T04:04:07.690Z,26.90
2023-04-17T04:05:07.622Z,26.85
2023-04-17T04:06:07.876Z,26.90
2023-04-17T04:07:07.539Z,26.88
2023-04-17T04:08:07.557Z,26.85
2023-04-17T04:09:07.569Z,26.88
2023-04-17T04:10:07.603Z,26.90
2023-04-17T04:11:07.623Z,26.94
2023-04-17T04:12:07.630Z,26.91
2023-04-17T04:13:07.658Z,26.90
2023-04-17T04:14:07.626Z,26.88
2023-04-17T04:15:07.662Z,26.91
2023-04-17T04:16:07.830Z,26.87
2023-04-17T04:17:07.688Z,26.91
2023-04-17T04:18:07.745Z,26.88
2023-04-17T04:19:07.690Z,26.91
2023-04-17T04:20:07.679Z,26.91
2023-04-17T04:21:07.916Z,26.91
2023-04-17T04:22:07.673Z,26.94
2023-04-17T04:23:07.684Z,26.90
2023-04-17T04:24:07.711Z,26.93
2023-04-17T04:25:07.674Z,26.93
2023-04-17T04:26:07.742Z,27.01
2023-04-17T04:27:07.734Z,26.95
2023-04-17T04:28:07.726Z,26.95
2023-04-17T04:29:07.752Z,26.94
2023-04-17T04:30:07.758Z,26.94
2023-04-17T04:31:07.832Z,26.93
2023-04-17T04:32:07.801Z,26.93
2023-04-17T04:33:07.880Z,26.94
2023-04-17T04:34:07.868Z,26.93
2023-04-17T04:35:07.864Z,26.93
2023-04-17T04:36:07.893Z,26.94
2023-04-17T04:37:07.841Z,26.90
2023-04-17T04:38:09.023Z,26.90
2023-04-17T04:39:07.841Z,26.91
2023-04-17T04:40:07.847Z,26.93
2023-04-17T04:41:07.872Z,26.93
2023-04-17T04:42:07.836Z,26.99
2023-04-17T04:43:07.850Z,26.95
2023-04-17T04:44:07.814Z,26.95
2023-04-17T04:45:07.867Z,26.94
2023-04-17T04:46:07.812Z,26.99
2023-04-17T04:47:07.863Z,26.95
2023-04-17T04:48:07.872Z,26.99
2023-04-17T04:49:07.771Z,26.97
2023-04-17T04:50:07.787Z,26.97
2023-04-17T04:51:07.794Z,26.98
2023-04-17T04:52:07.772Z,26.98
2023-04-17T04:53:07.789Z,26.96
2023-04-17T04:54:07.760Z,26.98
2023-04-17T04:55:07.767Z,26.98
2023-04-17T04:56:07.738Z,27.01
2023-04-17T04:57:07.737Z,27.04
2023-04-17T04:58:07.716Z,26.93
2023-04-17T04:59:07.720Z,26.95
2023-04-17T05:00:07.711Z,26.91
2023-04-17T05:01:07.808Z,26.93
2023-04-17T05:02:07.752Z,26.98
2023-04-17T05:03:07.829Z,26.97
2023-04-17T05:04:07.812Z,26.97
2023-04-17T05:05:07.728Z,26.95
2023-04-17T05:06:07.674Z,26.99
2023-04-17T05:07:07.660Z,26.98
2023-04-17T05:08:07.687Z,27.04
2023-04-17T05:09:07.674Z,26.99
2023-04-17T05:10:07.643Z,26.98
2023-04-17T05:11:07.659Z,26.94
2023-04-17T05:12:07.609Z,27.02
2023-04-17T05:13:07.650Z,27.00
2023-04-17T05:14:07.640Z,27.06
2023-04-17T05:15:07.590Z,27.05
2023-04-17T05:16:07.959Z,27.08
2023-04-17T05:17:07.619Z,27.06
2023-04-17T05:18:07.900Z,27.06
2023-04-17T05:19:07.588Z,27.09
2023-04-17T05:20:07.613Z,27.08
2023-04-17T05:21:07.594Z,27.12
2023-04-17T05:22:07.645Z,27.08
2023-04-17T05:23:07.575Z,27.06
2023-04-17T05:24:07.556Z,27.08
2023-04-17T05:25:07.568Z,27.11
2023-04-17T05:26:07.527Z,27.20
2023-04-17T05:27:07.528Z,27.21
2023-04-17T05:28:07.496Z,27.24
2023-04-17T05:29:07.516Z,27.25
2023-04-17T05:30:07.505Z,27.37
2023-04-17T05:31:07.561Z,27.39
2023-04-17T05:32:07.700Z,27.43
2023-04-17T05:33:07.553Z,27.56
2023-04-17T05:34:08.417Z,30.89
2023-04-17T05:35:07.492Z,31.58
2023-04-17T05:36:07.543Z,30.77
2023-04-17T05:37:07.469Z,30.54
2023-04-17T05:38:08.004Z,30.22
2023-04-17T05:39:07.448Z,30.21
2023-04-17T05:40:07.425Z,29.94
2023-04-17T05:41:07.545Z,30.00
2023-04-17T05:42:08.436Z,30.15
2023-04-17T05:43:07.902Z,30.10
2023-04-17T05:44:07.401Z,30.18
2023-04-17T05:45:07.433Z,30.00
2023-04-17T05:46:07.438Z,29.95
2023-04-17T05:47:07.369Z,29.92
2023-04-17T05:48:07.489Z,30.03
2023-04-17T05:49:07.413Z,29.92
2023-04-17T05:50:07.405Z,29.83
2023-04-17T05:51:07.361Z,29.74
2023-04-17T05:52:07.352Z,29.78
2023-04-17T05:53:07.341Z,29.61
2023-04-17T05:54:07.525Z,29.53
2023-04-17T05:55:07.357Z,29.43
2023-04-17T05:56:07.384Z,29.37
2023-04-17T05:57:07.300Z,29.26
2023-04-17T05:58:20.407Z,29.18
2023-04-17T05:59:08.292Z,29.09
2023-04-17T06:00:07.381Z,29.05
2023-04-17T06:01:07.450Z,29.03
2023-04-17T06:02:07.422Z,28.87
2023-04-17T06:03:07.428Z,28.84
2023-04-17T06:04:07.369Z,28.77
2023-04-17T06:05:07.486Z,28.81
2023-04-17T06:06:07.237Z,28.74
2023-04-17T06:07:07.231Z,28.78
2023-04-17T06:08:07.221Z,28.76
2023-04-17T06:09:07.237Z,28.81
2023-04-17T06:10:07.537Z,28.73
2023-04-17T06:11:07.244Z,28.73
2023-04-17T06:12:07.208Z,28.79
2023-04-17T06:13:07.269Z,28.78
2023-04-17T06:14:07.213Z,28.81
2023-04-17T06:15:08.554Z,28.89
2023-04-17T06:16:07.187Z,28.86
2023-04-17T06:17:07.289Z,28.74
2023-04-17T06:18:07.242Z,28.80
2023-04-17T06:19:07.171Z,28.78
2023-04-17T06:20:07.394Z,28.77
2023-04-17T06:21:07.156Z,28.84
2023-04-17T06:22:07.156Z,28.83
2023-04-17T06:23:07.147Z,28.80
2023-04-17T06:24:07.418Z,28.78
2023-04-17T06:25:07.142Z,28.79
2023-04-17T06:26:07.235Z,28.74
2023-04-17T06:27:07.184Z,28.73
2023-04-17T06:28:07.112Z,28.72
2023-04-17T06:29:07.119Z,28.84
2023-04-17T06:30:07.196Z,28.80
2023-04-17T06:31:07.148Z,28.82
2023-04-17T06:32:07.079Z,28.82
2023-04-17T06:33:07.112Z,28.95
2023-04-17T06:34:07.487Z,29.20
2023-04-17T06:35:07.110Z,29.46
2023-04-17T06:36:07.045Z,29.63
2023-04-17T06:37:07.077Z,29.92
2023-04-17T06:38:07.082Z,30.02
2023-04-17T06:39:07.361Z,30.25
2023-04-17T06:40:07.340Z,30.45
2023-04-17T06:41:07.348Z,30.06
2023-04-17T06:42:07.533Z,30.93
2023-04-17T06:43:07.338Z,30.42
2023-04-17T06:44:07.410Z,29.61
2023-04-17T06:45:07.431Z,29.58
2023-04-17T06:46:07.537Z,29.93
2023-04-17T06:47:07.559Z,29.79
2023-04-17T06:48:07.642Z,29.80
2023-04-17T06:49:07.681Z,29.61
2023-04-17T06:50:07.715Z,29.66
2023-04-17T06:51:07.789Z,29.55
2023-04-17T06:52:07.920Z,29.38
2023-04-17T06:53:07.781Z,29.37
2023-04-17T06:54:07.968Z,29.44
2023-04-17T06:55:07.837Z,29.51
2023-04-17T06:56:07.890Z,29.47
2023-04-17T06:57:07.940Z,29.45
2023-04-17T06:58:07.951Z,29.45
2023-04-17T06:59:07.975Z,29.42
2023-04-17T07:00:08.604Z,29.54
2023-04-17T07:01:08.179Z,29.44
2023-04-17T07:02:08.359Z,29.44
2023-04-17T07:03:08.204Z,29.35
2023-04-17T07:04:08.266Z,29.58
2023-04-17T07:05:08.199Z,29.49
2023-04-17T07:06:08.389Z,29.37
2023-04-17T07:07:08.297Z,29.45
2023-04-17T07:08:08.341Z,29.52
2023-04-17T07:09:08.398Z,29.49
2023-04-17T07:10:08.453Z,29.38
2023-04-17T07:11:08.510Z,29.38
2023-04-17T07:12:08.527Z,29.38
2023-04-17T07:13:08.738Z,29.42
2023-04-17T07:14:09.528Z,29.41
2023-04-17T07:15:08.782Z,29.53
2023-04-17T07:16:08.810Z,29.44
2023-04-17T07:17:08.913Z,29.44
2023-04-17T07:18:08.869Z,29.36
2023-04-17T07:19:08.908Z,29.49
2023-04-17T07:20:08.902Z,29.40
2023-04-17T07:21:08.966Z,29.46
2023-04-17T07:22:09.000Z,29.43
2023-04-17T07:23:09.003Z,29.43
2023-04-17T07:24:09.027Z,29.39
2023-04-17T07:25:09.026Z,29.44
2023-04-17T07:26:09.024Z,29.47
2023-04-17T07:27:09.012Z,29.36
2023-04-17T07:28:09.026Z,29.56
2023-04-17T07:29:09.652Z,30.99
2023-04-17T07:30:09.088Z,32.15
2023-04-17T07:31:09.084Z,30.60
2023-04-17T07:32:09.086Z,31.19
2023-04-17T07:33:09.235Z,31.94
2023-04-17T07:34:09.167Z,32.21
2023-04-17T07:35:09.172Z,32.56
2023-04-17T07:36:09.170Z,32.73
2023-04-17T07:37:09.174Z,32.25
2023-04-17T07:38:09.370Z,32.20
2023-04-17T07:39:09.279Z,32.15
2023-04-17T07:40:09.268Z,32.08
2023-04-17T07:41:09.309Z,31.94
2023-04-17T07:42:09.323Z,31.79
2023-04-17T07:43:09.989Z,31.75
2023-04-17T07:44:09.521Z,31.59
2023-04-17T07:45:09.402Z,31.50
2023-04-17T07:46:09.404Z,31.58
2023-04-17T07:47:09.495Z,31.38
2023-04-17T07:48:09.465Z,31.31
2023-04-17T07:49:12.065Z,31.10
2023-04-17T07:50:09.473Z,31.18
2023-04-17T07:51:09.402Z,31.10
2023-04-17T07:52:09.414Z,30.83
2023-04-17T07:53:09.411Z,30.86
2023-04-17T07:54:09.407Z,30.86
2023-04-17T07:55:09.374Z,30.76
2023-04-17T07:56:09.935Z,30.85
2023-04-17T07:57:09.374Z,30.88
2023-04-17T07:58:09.378Z,30.81
2023-04-17T07:59:10.342Z,30.92
2023-04-17T08:00:09.345Z,30.91
2023-04-17T08:01:09.330Z,30.77
2023-04-17T08:02:10.093Z,30.95
2023-04-17T08:03:09.586Z,30.90
2023-04-17T08:04:09.583Z,30.98
2023-04-17T08:05:09.375Z,31.02
2023-04-17T08:06:09.348Z,30.94
2023-04-17T08:07:09.507Z,31.01
2023-04-17T08:08:09.548Z,31.34
2023-04-17T08:09:09.420Z,31.59
2023-04-17T08:10:09.356Z,31.56
2023-04-17T08:11:09.336Z,31.39
2023-04-17T08:12:09.552Z,31.22
2023-04-17T08:13:09.430Z,31.14
2023-04-17T08:14:09.472Z,31.18
2023-04-17T08:15:09.452Z,31.18
2023-04-17T08:16:09.508Z,31.17
2023-04-17T08:17:09.666Z,31.03
2023-04-17T08:18:09.686Z,31.10
2023-04-17T08:19:10.136Z,31.07
2023-04-17T08:20:09.658Z,31.02
2023-04-17T08:21:09.735Z,31.04
2023-04-17T08:22:09.747Z,31.20
2023-04-17T08:23:09.751Z,31.04
2023-04-17T08:24:09.763Z,31.23
2023-04-17T08:25:09.794Z,31.45
2023-04-17T08:26:10.547Z,33.29
2023-04-17T08:27:09.984Z,34.84
2023-04-17T08:28:09.962Z,34.37
2023-04-17T08:29:10.037Z,33.53
2023-04-17T08:30:12.422Z,33.34
2023-04-17T08:31:10.085Z,32.99
2023-04-17T08:32:13.905Z,32.49
2023-04-17T08:33:10.036Z,32.23
2023-04-17T08:34:14.535Z,32.19
2023-04-17T08:35:11.472Z,32.41
2023-04-17T08:36:10.288Z,33.20
2023-04-17T08:37:10.492Z,32.78
2023-04-17T08:38:09.985Z,32.38
2023-04-17T08:39:10.465Z,33.14
2023-04-17T08:40:10.514Z,33.89
2023-04-17T08:41:10.057Z,34.41
2023-04-17T08:42:13.334Z,34.08
2023-04-17T08:43:11.045Z,33.77
2023-04-17T08:44:10.074Z,33.48
2023-04-17T08:45:10.140Z,32.71
2023-04-17T08:46:10.291Z,31.97
2023-04-17T08:47:10.555Z,32.00
2023-04-17T08:48:10.329Z,31.76
2023-04-17T08:49:10.856Z,31.59
2023-04-17T08:50:11.004Z,31.77
2023-04-17T08:51:10.494Z,31.65
2023-04-17T08:52:10.997Z,31.21
2023-04-17T08:53:10.649Z,31.23
2023-04-17T08:54:10.652Z,31.01
2023-04-17T08:55:10.704Z,30.86
2023-04-17T08:56:10.772Z,30.71
2023-04-17T08:57:11.114Z,30.78
2023-04-17T08:58:10.869Z,30.73
2023-04-17T08:59:11.063Z,30.69
2023-04-17T09:00:10.976Z,30.64
2023-04-17T09:01:11.087Z,30.59
2023-04-17T09:02:11.629Z,30.56
2023-04-17T09:03:11.607Z,30.48
2023-04-17T09:04:11.375Z,30.56
2023-04-17T09:05:11.284Z,30.63
2023-04-17T09:06:11.468Z,30.57
2023-04-17T09:07:11.370Z,30.83
2023-04-17T09:08:11.423Z,30.92
2023-04-17T09:09:11.666Z,30.73
2023-04-17T09:10:11.581Z,30.58
2023-04-17T09:11:11.579Z,30.53
2023-04-17T09:12:11.641Z,30.46
2023-04-17T09:13:11.722Z,30.45
2023-04-17T09:14:11.917Z,30.64
2023-04-17T09:15:11.824Z,30.54
2023-04-17T09:16:11.957Z,30.47
2023-04-17T09:17:11.957Z,30.61
2023-04-17T09:18:12.127Z,30.58
2023-04-17T09:19:12.316Z,30.73
2023-04-17T09:20:12.268Z,30.74
2023-04-17T09:21:12.172Z,30.78
2023-04-17T09:22:12.239Z,30.63
2023-04-17T09:23:12.363Z,30.59
2023-04-17T09:24:12.351Z,30.53
2023-04-17T09:25:12.456Z,30.71
2023-04-17T09:26:12.519Z,30.63
2023-04-17T09:27:12.702Z,30.44
2023-04-17T09:28:12.594Z,30.49
2023-04-17T09:29:12.760Z,30.47
2023-04-17T09:30:12.830Z,30.51
2023-04-17T09:31:12.836Z,30.64
2023-04-17T09:32:12.900Z,31.24
2023-04-17T09:33:13.510Z,31.54
2023-04-17T09:34:12.971Z,32.83
2023-04-17T09:35:13.027Z,32.28
2023-04-17T09:36:13.064Z,32.44
2023-04-17T09:37:13.147Z,32.01
2023-04-17T09:38:13.173Z,31.87
2023-04-17T09:39:13.435Z,31.65
2023-04-17T09:40:13.526Z,31.51
2023-04-17T09:41:13.351Z,31.23
2023-04-17T09:42:13.441Z,31.23
2023-04-17T09:43:13.418Z,30.98
2023-04-17T09:44:13.557Z,30.84
2023-04-17T09:45:14.038Z,30.77
2023-04-17T09:46:13.556Z,30.53
2023-04-17T09:47:13.601Z,30.65
2023-04-17T09:48:13.684Z,30.58
2023-04-17T09:49:13.723Z,30.52
2023-04-17T09:50:13.844Z,30.40
2023-04-17T09:51:13.842Z,30.45
2023-04-17T09:52:13.899Z,30.41
2023-04-17T09:53:13.967Z,30.41
2023-04-17T09:54:14.267Z,30.35
2023-04-17T09:55:14.057Z,30.41
2023-04-17T09:56:14.135Z,30.32
2023-04-17T09:57:14.192Z,30.43
2023-04-17T09:58:14.254Z,30.48
2023-04-17T09:59:14.290Z,30.56
2023-04-17T10:00:14.487Z,30.52
2023-04-17T10:01:14.468Z,30.54
2023-04-17T10:02:14.571Z,30.45
2023-04-17T10:03:14.753Z,30.65
2023-04-17T10:04:14.849Z,30.55
2023-04-17T10:05:14.681Z,30.67
2023-04-17T10:06:14.678Z,30.64
2023-04-17T10:07:14.741Z,30.61
2023-04-17T10:08:14.897Z,30.57
2023-04-17T10:09:14.864Z,30.58
2023-04-17T10:10:15.028Z,30.55
2023-04-17T10:11:14.999Z,30.52
2023-04-17T10:12:16.010Z,30.52
2023-04-17T10:13:15.550Z,30.42
2023-04-17T10:14:15.277Z,30.42
2023-04-17T10:15:15.285Z,30.32
2023-04-17T10:16:15.359Z,30.26
2023-04-17T10:17:15.312Z,30.19
2023-04-17T10:18:15.467Z,30.23
2023-04-17T10:19:15.408Z,30.19
2023-04-17T10:20:15.487Z,30.12
2023-04-17T10:21:15.543Z,29.92
2023-04-17T10:22:15.617Z,30.26
2023-04-17T10:23:15.995Z,30.17
2023-04-17T10:24:15.864Z,30.12
2023-04-17T10:25:15.772Z,30.24
2023-04-17T10:26:17.054Z,30.15
2023-04-17T10:27:15.818Z,30.06
2023-04-17T10:28:16.523Z,30.04
2023-04-17T10:29:15.962Z,30.07
2023-04-17T10:30:16.008Z,29.96
2023-04-17T10:31:16.018Z,29.90
2023-04-17T10:32:16.158Z,29.86
2023-04-17T10:33:16.621Z,29.72
2023-04-17T10:34:16.162Z,29.78
2023-04-17T10:35:16.328Z,29.68
2023-04-17T10:36:16.280Z,29.65
2023-04-17T10:37:17.005Z,29.64
2023-04-17T10:38:16.373Z,29.67
2023-04-17T10:39:16.402Z,29.63
2023-04-17T10:40:16.479Z,29.70
2023-04-17T10:41:16.560Z,29.66
2023-04-17T10:42:16.527Z,29.62
2023-04-17T10:43:17.029Z,29.61
2023-04-17T10:44:16.607Z,29.64
2023-04-17T10:45:16.883Z,29.57
2023-04-17T10:46:17.059Z,29.55
2023-04-17T10:47:16.770Z,29.60
2023-04-17T10:48:16.825Z,29.66
2023-04-17T10:49:16.843Z,29.61
2023-04-17T10:50:16.887Z,29.62
2023-04-17T10:51:17.042Z,29.67
2023-04-17T10:52:17.056Z,29.68
2023-04-17T10:53:17.519Z,29.66
2023-04-17T10:54:17.099Z,29.73
2023-04-17T10:55:17.203Z,29.73
2023-04-17T10:56:17.151Z,29.92
2023-04-17T10:57:17.185Z,30.10
2023-04-17T10:58:17.260Z,30.01
2023-04-17T10:59:17.310Z,30.16
2023-04-17T11:00:17.328Z,30.17
2023-04-17T11:01:17.630Z,30.17
2023-04-17T11:02:17.464Z,30.12
2023-04-17T11:03:17.576Z,30.17
2023-04-17T11:04:17.597Z,30.40
2023-04-17T11:05:17.537Z,30.29
2023-04-17T11:06:17.594Z,30.34
2023-04-17T11:07:17.609Z,30.31
2023-04-17T11:08:17.777Z,30.64
2023-04-17T11:09:17.832Z,30.62
2023-04-17T11:10:17.812Z,30.66
2023-04-17T11:11:20.995Z,30.54
2023-04-17T11:12:18.829Z,30.34
2023-04-17T11:13:17.845Z,30.31
2023-04-17T11:14:17.890Z,30.06
2023-04-17T11:15:17.818Z,30.69
2023-04-17T11:16:17.804Z,30.56
2023-04-17T11:17:18.019Z,32.24
2023-04-17T11:18:17.913Z,33.74
2023-04-17T11:19:17.830Z,32.50
2023-04-17T11:20:17.783Z,31.98
2023-04-17T11:21:17.817Z,31.52
2023-04-17T11:22:17.790Z,31.58
2023-04-17T11:23:17.775Z,31.34
2023-04-17T11:24:17.799Z,31.30
2023-04-17T11:25:17.824Z,31.20
2023-04-17T11:26:17.912Z,31.19
2023-04-17T11:27:17.873Z,31.12
2023-04-17T11:28:17.949Z,31.08
2023-04-17T11:29:17.976Z,30.94
2023-04-17T11:30:18.024Z,30.86
2023-04-17T11:31:19.441Z,30.73
2023-04-17T11:32:18.018Z,30.51
2023-04-17T11:33:18.004Z,30.52
2023-04-17T11:34:18.011Z,30.28
2023-04-17T11:35:18.010Z,30.39
2023-04-17T11:36:17.993Z,30.11
2023-04-17T11:37:18.015Z,29.97
2023-04-17T11:38:18.029Z,29.87
2023-04-17T11:39:17.960Z,29.83
2023-04-17T11:40:17.958Z,29.67
2023-04-17T11:41:17.957Z,29.49
2023-04-17T11:42:17.950Z,29.74
2023-04-17T11:43:17.999Z,29.40
2023-04-17T11:44:17.963Z,29.20
2023-04-17T11:45:17.934Z,29.05
2023-04-17T11:46:17.937Z,28.95
2023-04-17T11:47:17.911Z,28.90
2023-04-17T11:48:18.524Z,29.05
2023-04-17T11:49:17.934Z,28.92
2023-04-17T11:50:17.930Z,29.04
2023-04-17T11:51:17.894Z,28.90
2023-04-17T11:52:18.073Z,28.69
2023-04-17T11:53:17.874Z,28.64
2023-04-17T11:54:17.872Z,28.48
2023-04-17T11:55:17.884Z,28.51
2023-04-17T11:56:17.860Z,28.48
2023-04-17T11:57:17.862Z,28.56
2023-04-17T11:58:17.861Z,28.30
2023-04-17T11:59:17.884Z,28.41
2023-04-17T12:00:17.829Z,28.21
2023-04-17T12:01:17.845Z,28.16
2023-04-17T12:02:17.955Z,28.16
2023-04-17T12:03:18.128Z,28.29
2023-04-17T12:04:18.186Z,28.24
2023-04-17T12:05:17.983Z,28.17
2023-04-17T12:06:17.800Z,28.23
2023-04-17T12:07:17.839Z,28.19
2023-04-17T12:08:17.830Z,28.21
2023-04-17T12:09:17.842Z,28.20
2023-04-17T12:10:17.876Z,28.25
2023-04-17T12:11:17.833Z,28.25
2023-04-17T12:12:17.878Z,28.24
2023-04-17T12:13:18.092Z,28.31
2023-04-17T12:14:17.989Z,28.37
2023-04-17T12:15:18.020Z,28.42
2023-04-17T12:16:18.096Z,28.51
2023-04-17T12:17:18.151Z,28.58
2023-04-17T12:18:18.184Z,28.51
2023-04-17T12:19:18.256Z,28.59
2023-04-17T12:20:18.302Z,28.60
2023-04-17T12:21:18.374Z,28.82
2023-04-17T12:22:18.430Z,28.92
2023-04-17T12:23:18.509Z,28.89
2023-04-17T12:24:18.568Z,29.07
2023-04-17T12:25:18.618Z,28.78
2023-04-17T12:26:18.636Z,29.00
2023-04-17T12:27:18.710Z,28.67
2023-04-17T12:28:18.774Z,28.78
2023-04-17T12:29:24.063Z,29.12
2023-04-17T12:30:19.818Z,29.02
2023-04-17T12:31:18.865Z,29.17
2023-04-17T12:32:18.837Z,29.02
2023-04-17T12:33:18.829Z,29.24
2023-04-17T12:34:18.833Z,29.29
2023-04-17T12:35:18.808Z,29.15
2023-04-17T12:36:18.874Z,29.30
2023-04-17T12:37:19.082Z,29.17
2023-04-17T12:38:18.982Z,29.14
2023-04-17T12:39:18.782Z,29.02
2023-04-17T12:40:18.849Z,29.05
2023-04-17T12:41:18.863Z,28.98
2023-04-17T12:42:18.878Z,29.04
2023-04-17T12:43:18.946Z,29.06
2023-04-17T12:44:18.926Z,29.05
2023-04-17T12:45:18.985Z,28.98
2023-04-17T12:46:19.061Z,28.84
2023-04-17T12:47:19.130Z,28.83
2023-04-17T12:48:19.098Z,28.80
2023-04-17T12:49:19.100Z,28.83
2023-04-17T12:50:19.170Z,28.82
2023-04-17T12:51:19.181Z,28.78
2023-04-17T12:52:19.252Z,28.78